Fairdale, ND (58229)

10:01 PM CDT on September 14, 2014 (GMT -0500)
Langdon | Change Station
CLOSE
Current Station
Airport
Location: Langdon,
Elevation: 1608 ft
Nearby Weather Stations

Elev 1608 ft 48.75 °N, 98.39 °W | Updated 6 minutes ago

Overcast
Overcast
46 °F
Feels Like 44 °F
N
5
Wind Variable Wind from WNW

Today
High -- | Low -- °F
--% Chance of Precip.
Yesterday
High -- | Low -- °F
Precip. -- in
7:08 AM 7:47 PM
Waning Gibbous, 60% visible
Pressure 30.15 in
Visibility 10.0 miles
Clouds Overcast 6500 ft
Windchill 44 °F
Dew Point 37 °F
Humidity 71%
Rainfall 0.00 in
Snow Depth Not available.
UV 0 out of 12
Pollen 3.50 out of 12
Air Quality Not available.
Flu Activity Not available.
METAR KD55 150255Z AUTO 30004KT 10SM OVC065 08/03 A3015 RMK AO2

More Conditions Fewer Conditions

Pressure 30.15 in
Visibility 10.0 miles
Clouds Overcast 6500 ft
Windchill 44 °F
Dew Point 37 °F
Humidity 71%
Rainfall 0.00 in
Snow Depth Not available.
UV 0 out of 12
Pollen 3.50 out of 12
Air Quality Not available.
Flu Activity Not available.
METAR KD55 150255Z AUTO 30004KT 10SM OVC065 08/03 A3015 RMK AO2

More Conditions Fewer Conditions

10-Day Weather Forecast

Almanac

Astronomy

Sep. 14, 2014 Rise Set
Actual Time 7:08 AM CDT 7:47 PM CDT
Civil Twilight 6:36 AM CDT 8:18 PM CDT
Nautical Twilight 5:59 AM CDT 8:56 PM CDT
Astronomical Twilight 5:19 AM CDT 9:35 PM CDT
Moon 11:13 PM CDT (9/14) 1:43 PM CDT (9/14)
Length of Visible Light 13h 42m
Length of Day
12h 39m
Tomorrow will be 3m 29s shorter.
Waning Gibbous, 60% of the Moon is Illuminated
Today
Waning Gibbous
Sep 15
Last Quarter
Sep 24
New
Oct 1
First Quarter
Oct 8
Full

Today's Extremes

State Highs State Lows

Community

WunderPhotos

Upload Photos

1,753,388 photos uploaded!

Nearby

Snow Depth

Station Depth Elevation
No new snow has been reported.

Earthquake Activity

City Distance Mag. Time & Date
No recent earthquake activity has been reported nearby.
Minimum magnitude displayed is 2.5.

Coastal Water Temperatures

Place Temperature
No Stations Reporting

Nearby Weather Stations